Richardton, ND (58652)

8:18 AM MDT on October 23, 2014 (GMT -0600)
Glen Ullin Rgnl, Glen Ullin, | Change Station
CLOSE
Current Station
Airport
Location: Glen Ullin Rgnl, Glen Ullin,,
Elevation: 2087 ft
Nearby Weather Stations

Elev 2087 ft 46.81 °N, 101.86 °W | Updated 3 minutes ago

Clear
Clear
36 °F
Feels Like 32 °F
N
5
Wind Variable Wind from South

Today
High -- | Low -- °F
--% Chance of Precip.
Yesterday
High -- | Low -- °F
Precip. -- in
7:18 AM 5:47 PM
Waning Crescent, 0% visible
Pressure 29.89 in
Visibility 10.0 miles
Clouds Clear
Windchill 32 °F
Dew Point 30 °F
Humidity 81%
Rainfall 0.00 in
Snow Depth Not available.
UV 0 out of 12
Pollen 1.60 out of 12
Air Quality Not available.
Flu Activity Local Activity
METAR KD57 231415Z AUTO 18004KT 10SM CLR 02/M01 A2989 RMK AO2 TSNO

More Conditions Fewer Conditions

Pressure 29.89 in
Visibility 10.0 miles
Clouds Clear
Windchill 32 °F
Dew Point 30 °F
Humidity 81%
Rainfall 0.00 in
Snow Depth Not available.
UV 0 out of 12
Pollen 1.60 out of 12
Air Quality Not available.
Flu Activity Local Activity
METAR KD57 231415Z AUTO 18004KT 10SM CLR 02/M01 A2989 RMK AO2 TSNO

More Conditions Fewer Conditions

10-Day Weather Forecast

Almanac

Astronomy

Oct. 23, 2014 Rise Set
Actual Time 7:18 AM MDT 5:47 PM MDT
Civil Twilight 6:47 AM MDT 6:18 PM MDT
Nautical Twilight 6:12 AM MDT 6:54 PM MDT
Astronomical Twilight 5:36 AM MDT 7:29 PM MDT
Moon 6:59 AM MDT 5:50 PM MDT
Length of Visible Light 11h 31m
Length of Day
10h 29m
Tomorrow will be 3m 8s shorter.
Waning Crescent, 0% of the Moon is Illuminated
Today
Waning Crescent
Oct 23
New
Oct 30
First Quarter
Nov 6
Full
Nov 14
Last Quarter

Today's Extremes

State Highs State Lows

Community

WunderPhotos

Upload Photos

1,764,256 photos uploaded!

Nearby

Snow Depth

Station Depth Elevation
No new snow has been reported.

Earthquake Activity

City Distance Mag. Time & Date
No recent earthquake activity has been reported nearby.
Minimum magnitude displayed is 2.5.

Coastal Water Temperatures

Place Temperature
No Stations Reporting

Nearby Weather Stations